createdAt,value
2023-08-23T00:00:33.634Z,19.70
2023-08-23T00:03:07.657Z,19.08
2023-08-23T00:05:34.536Z,20.23
2023-08-23T00:08:06.643Z,19.58
2023-08-23T00:10:33.483Z,18.30
2023-08-23T00:13:00.871Z,18.63
2023-08-23T00:15:27.840Z,20.25
2023-08-23T00:17:54.840Z,20.13
2023-08-23T00:20:25.622Z,19.85
2023-08-23T00:22:52.399Z,18.92
2023-08-23T00:25:19.247Z,18.85
2023-08-23T00:27:50.089Z,19.48
2023-08-23T00:30:23.582Z,17.77
2023-08-23T00:32:50.445Z,19.70
2023-08-23T00:35:17.379Z,20.33
2023-08-23T00:37:44.273Z,19.42
2023-08-23T00:40:11.661Z,19.08
2023-08-23T00:42:38.410Z,18.85
2023-08-23T00:45:05.683Z,20.25
2023-08-23T00:47:32.770Z,19.30
2023-08-23T00:49:59.680Z,18.95
2023-08-23T00:52:33.604Z,19.52
2023-08-23T00:55:06.898Z,19.83
2023-08-23T00:57:33.639Z,19.45
2023-08-23T01:00:01.579Z,19.52
2023-08-23T01:02:30.649Z,22.30
2023-08-23T01:05:03.522Z,20.17
2023-08-23T01:08:12.290Z,20.67
2023-08-23T01:11:03.217Z,21.50
2023-08-23T01:13:50.229Z,19.90
2023-08-23T01:16:20.661Z,20.60
2023-08-23T01:18:48.881Z,21.23
2023-08-23T01:21:24.317Z,19.88
2023-08-23T01:23:51.733Z,21.08
2023-08-23T01:26:20.645Z,20.25
2023-08-23T01:28:48.999Z,19.77
2023-08-23T01:31:16.793Z,20.02
2023-08-23T01:33:51.154Z,20.63
2023-08-23T01:36:25.036Z,21.20
2023-08-23T01:38:55.968Z,20.13
2023-08-23T01:41:23.805Z,20.92
2023-08-23T01:43:53.820Z,22.05
2023-08-23T01:46:20.741Z,21.02
2023-08-23T01:48:47.869Z,20.80
2023-08-23T01:51:15.810Z,20.58
2023-08-23T01:53:42.588Z,20.67
2023-08-23T01:56:09.457Z,21.38
2023-08-23T01:58:38.532Z,20.80
2023-08-23T02:01:05.369Z,22.77
2023-08-23T02:03:32.418Z,21.23
2023-08-23T02:05:59.368Z,22.15
2023-08-23T02:08:26.520Z,21.55
2023-08-23T02:10:53.258Z,21.05
2023-08-23T02:13:20.156Z,22.05
2023-08-23T02:15:50.157Z,22.60
2023-08-23T02:18:17.952Z,22.50
2023-08-23T02:20:45.096Z,21.35
2023-08-23T02:23:14.889Z,20.95
2023-08-23T02:25:42.903Z,22.95
2023-08-23T02:28:09.670Z,22.00
2023-08-23T02:30:36.399Z,21.30
2023-08-23T02:33:12.244Z,21.58
2023-08-23T02:35:44.843Z,20.70
2023-08-23T02:38:12.010Z,22.02
2023-08-23T02:40:42.864Z,21.23
2023-08-23T02:43:10.161Z,21.55
2023-08-23T02:45:41.123Z,21.25
2023-08-23T02:48:10.467Z,22.55
2023-08-23T02:50:38.459Z,21.23
2023-08-23T02:53:05.271Z,22.85
2023-08-23T02:55:38.255Z,22.92
2023-08-23T02:58:05.620Z,23.05
2023-08-23T03:00:32.339Z,22.60
2023-08-23T03:03:01.992Z,22.33
2023-08-23T03:05:29.505Z,21.20
2023-08-23T03:08:01.080Z,22.63
2023-08-23T03:10:29.117Z,21.67
2023-08-23T03:12:56.249Z,22.25
2023-08-23T03:15:29.682Z,22.63
2023-08-23T03:17:56.459Z,23.30
2023-08-23T03:20:23.401Z,24.05
2023-08-23T03:22:51.630Z,21.92
2023-08-23T03:25:18.928Z,21.85
2023-08-23T03:27:46.182Z,22.00
2023-08-23T03:30:13.401Z,21.27
2023-08-23T03:32:40.536Z,21.67
2023-08-23T03:35:10.561Z,20.77
2023-08-23T03:37:37.625Z,20.52
2023-08-23T03:40:09.043Z,20.08
2023-08-23T03:42:35.746Z,19.25
2023-08-23T03:45:02.468Z,20.15
2023-08-23T03:47:32.349Z,20.42
2023-08-23T03:50:02.208Z,18.92
2023-08-23T03:52:28.949Z,19.02
2023-08-23T03:54:55.685Z,19.25
2023-08-23T03:57:25.173Z,18.05
2023-08-23T03:59:53.973Z,18.95
2023-08-23T04:02:23.068Z,18.88
2023-08-23T04:04:49.916Z,19.13
2023-08-23T04:07:17.122Z,18.45
2023-08-23T04:09:43.870Z,19.80
2023-08-23T04:12:10.657Z,19.65
2023-08-23T04:14:37.439Z,18.73
2023-08-23T04:17:05.185Z,18.00
2023-08-23T04:19:31.892Z,18.30
2023-08-23T04:22:01.134Z,30.35
2023-08-23T04:24:30.963Z,19.58
2023-08-23T04:26:57.653Z,18.85
2023-08-23T04:29:24.280Z,18.65
2023-08-23T04:31:50.994Z,17.98
2023-08-23T04:34:17.720Z,18.30
2023-08-23T04:36:47.539Z,18.42
2023-08-23T04:39:14.190Z,18.92
2023-08-23T04:41:40.970Z,19.27
2023-08-23T04:44:07.650Z,19.67
2023-08-23T04:46:34.305Z,18.73
2023-08-23T04:49:00.999Z,19.20
2023-08-23T04:51:33.714Z,17.38
2023-08-23T04:54:00.385Z,17.98
2023-08-23T04:56:28.645Z,19.17
2023-08-23T04:58:58.101Z,21.35
2023-08-23T05:01:25.536Z,21.20
2023-08-23T05:03:52.246Z,20.83
2023-08-23T05:06:21.374Z,21.63
2023-08-23T05:08:52.954Z,20.48
2023-08-23T05:11:19.695Z,20.95
2023-08-23T05:13:46.281Z,21.40
2023-08-23T05:16:14.045Z,20.00
2023-08-23T05:18:40.831Z,20.38
2023-08-23T05:21:10.409Z,21.13
2023-08-23T05:23:37.953Z,20.25
2023-08-23T05:26:04.702Z,19.80
2023-08-23T05:28:31.389Z,18.30
2023-08-23T05:30:59.627Z,17.40
2023-08-23T05:33:26.416Z,17.85
2023-08-23T05:35:54.817Z,16.95
2023-08-23T05:38:25.688Z,15.07
2023-08-23T05:40:54.600Z,15.38
2023-08-23T05:43:24.575Z,16.17
2023-08-23T05:45:52.734Z,15.38
2023-08-23T05:48:19.907Z,14.75
2023-08-23T05:50:50.159Z,14.85
2023-08-23T05:53:20.453Z,14.98
2023-08-23T05:55:53.156Z,14.57
2023-08-23T05:58:20.339Z,15.15
2023-08-23T06:00:48.833Z,14.98
2023-08-23T06:03:18.753Z,15.45
2023-08-23T06:05:45.827Z,15.10
2023-08-23T06:08:15.561Z,14.50
2023-08-23T06:10:42.488Z,13.90
2023-08-23T06:13:19.686Z,15.35
2023-08-23T06:15:54.954Z,15.27
2023-08-23T06:18:22.681Z,15.70
2023-08-23T06:20:50.705Z,16.10
2023-08-23T06:23:17.563Z,16.10
2023-08-23T06:25:44.296Z,17.02
2023-08-23T06:28:11.012Z,16.10
2023-08-23T06:30:39.005Z,15.60
2023-08-23T06:33:07.129Z,14.70
2023-08-23T06:35:34.211Z,16.40
2023-08-23T06:38:00.912Z,16.20
2023-08-23T06:40:27.559Z,14.80
2023-08-23T06:42:54.258Z,15.82
2023-08-23T06:45:22.498Z,15.63
2023-08-23T06:47:50.556Z,15.00
2023-08-23T06:50:17.634Z,15.57
2023-08-23T06:52:46.275Z,15.20
2023-08-23T06:55:13.178Z,15.02
2023-08-23T06:57:41.204Z,15.23
2023-08-23T07:00:08.493Z,15.65
2023-08-23T07:02:35.359Z,14.85
2023-08-23T07:05:02.079Z,15.50
2023-08-23T07:07:28.705Z,13.80
2023-08-23T07:09:55.642Z,14.77
2023-08-23T07:12:25.331Z,15.05
2023-08-23T07:14:52.002Z,14.02
2023-08-23T07:17:20.196Z,14.52
2023-08-23T07:19:48.799Z,13.90
2023-08-23T07:22:16.418Z,15.23
2023-08-23T07:24:43.320Z,14.25
2023-08-23T07:27:10.064Z,14.20
2023-08-23T07:29:38.138Z,15.40
2023-08-23T07:32:08.151Z,14.48
2023-08-23T07:34:34.814Z,14.88
2023-08-23T07:37:02.631Z,14.38
2023-08-23T07:39:29.777Z,14.52
2023-08-23T07:42:01.789Z,14.95
2023-08-23T07:44:30.624Z,14.13
2023-08-23T07:46:57.359Z,15.93
2023-08-23T07:49:24.100Z,14.02
2023-08-23T07:51:53.427Z,14.00
2023-08-23T07:54:20.098Z,13.63
2023-08-23T07:56:46.893Z,14.27
2023-08-23T07:59:14.045Z,13.82
2023-08-23T08:01:40.817Z,13.80
2023-08-23T08:04:07.630Z,14.02
2023-08-23T08:06:40.957Z,14.70
2023-08-23T08:09:11.233Z,13.30
2023-08-23T08:11:37.962Z,13.25
2023-08-23T08:14:08.142Z,14.00
2023-08-23T08:16:37.597Z,13.50
2023-08-23T08:19:09.543Z,12.95
2023-08-23T08:21:41.055Z,13.15
2023-08-23T08:24:10.971Z,12.25
2023-08-23T08:26:37.753Z,13.93
2023-08-23T08:29:06.664Z,13.20
2023-08-23T08:31:33.747Z,13.80
2023-08-23T08:34:01.263Z,13.63
2023-08-23T08:36:30.872Z,13.48
2023-08-23T08:39:02.909Z,14.85
2023-08-23T08:41:32.105Z,14.07
2023-08-23T08:44:02.536Z,14.38
2023-08-23T08:46:29.834Z,14.02
2023-08-23T08:49:04.036Z,14.30
2023-08-23T08:51:37.006Z,14.43
2023-08-23T08:54:09.961Z,14.40
2023-08-23T08:56:37.017Z,15.00
2023-08-23T08:59:04.370Z,13.73
2023-08-23T09:01:35.568Z,14.27
2023-08-23T09:04:02.698Z,13.30
2023-08-23T09:06:29.918Z,14.02
2023-08-23T09:08:57.211Z,14.80
2023-08-23T09:11:23.962Z,13.65
2023-08-23T09:14:03.388Z,13.85
2023-08-23T09:16:30.406Z,13.90
2023-08-23T09:19:05.636Z,13.52
2023-08-23T09:21:39.356Z,13.38
2023-08-23T09:24:17.215Z,13.88
2023-08-23T09:26:53.361Z,13.77
2023-08-23T09:29:25.015Z,13.48
2023-08-23T09:31:51.957Z,13.70
2023-08-23T09:34:18.955Z,13.20
2023-08-23T09:36:48.283Z,13.85
2023-08-23T09:39:15.052Z,13.10
2023-08-23T09:41:59.406Z,13.00
2023-08-23T09:44:32.607Z,13.02
2023-08-23T09:47:01.950Z,13.05
2023-08-23T09:49:35.877Z,13.85
2023-08-23T09:52:07.310Z,12.13
2023-08-23T09:55:08.459Z,13.07
2023-08-23T09:57:42.381Z,11.52
2023-08-23T10:00:10.708Z,11.45
2023-08-23T10:02:37.891Z,12.55
2023-08-23T10:05:08.279Z,11.38
2023-08-23T10:07:36.354Z,12.00
2023-08-23T10:10:04.831Z,12.63
2023-08-23T10:12:37.991Z,13.82
2023-08-23T10:15:06.763Z,12.45
2023-08-23T10:17:38.162Z,13.95
2023-08-23T10:20:06.977Z,13.93
2023-08-23T10:22:36.128Z,12.60
2023-08-23T10:25:14.217Z,13.07
2023-08-23T10:27:43.443Z,13.50
2023-08-23T10:30:20.540Z,12.25
2023-08-23T10:32:47.913Z,13.82
2023-08-23T10:35:33.009Z,11.20
2023-08-23T10:38:03.637Z,13.50
2023-08-23T10:43:05.311Z,11.13
2023-08-23T10:45:54.600Z,12.23
2023-08-23T10:48:23.851Z,11.30
2023-08-23T10:50:54.777Z,11.45
2023-08-23T10:53:23.046Z,12.03
2023-08-23T10:55:51.317Z,13.25
2023-08-23T10:58:19.364Z,11.75
2023-08-23T11:00:59.820Z,12.10
2023-08-23T11:03:29.817Z,12.27
2023-08-23T11:05:59.646Z,13.70
2023-08-23T11:08:33.600Z,15.05
2023-08-23T11:11:00.426Z,13.70
2023-08-23T11:13:27.265Z,11.77
2023-08-23T11:15:57.382Z,12.52
2023-08-23T11:18:24.293Z,12.10
2023-08-23T11:20:54.754Z,12.32
2023-08-23T11:23:21.596Z,14.25
2023-08-23T11:25:48.319Z,13.43
2023-08-23T11:28:18.222Z,13.50
2023-08-23T11:30:50.355Z,14.90
2023-08-23T11:33:29.570Z,15.80
2023-08-23T11:35:56.379Z,12.75
2023-08-23T11:38:29.117Z,15.00
2023-08-23T11:40:55.955Z,14.70
2023-08-23T11:43:26.349Z,12.95
2023-08-23T11:45:56.218Z,11.35
2023-08-23T11:48:29.716Z,12.05
2023-08-23T11:50:59.206Z,12.38
2023-08-23T11:53:27.338Z,11.57
2023-08-23T11:56:00.697Z,11.75
2023-08-23T11:58:28.603Z,12.38
2023-08-23T12:00:55.842Z,12.70
2023-08-23T12:03:22.521Z,11.93
2023-08-23T12:05:49.333Z,13.13
2023-08-23T12:08:17.393Z,12.60
2023-08-23T12:10:57.190Z,11.73
2023-08-23T12:13:31.420Z,12.10
2023-08-23T12:16:04.648Z,11.93
2023-08-23T12:18:40.064Z,11.98
2023-08-23T12:21:07.196Z,11.55
2023-08-23T12:23:35.270Z,10.48
2023-08-23T12:26:02.088Z,10.93
2023-08-23T12:28:30.647Z,10.48
2023-08-23T12:31:00.472Z,11.70
2023-08-23T12:33:27.165Z,11.38
2023-08-23T12:35:55.364Z,11.10
2023-08-23T12:38:30.236Z,10.48
2023-08-23T12:41:08.522Z,10.13
2023-08-23T12:43:37.906Z,10.45
2023-08-23T12:46:04.826Z,9.48
2023-08-23T12:48:31.831Z,10.68
2023-08-23T12:50:58.733Z,10.20
2023-08-23T12:53:28.238Z,9.68
2023-08-23T12:55:55.530Z,10.73
2023-08-23T12:58:22.680Z,10.02
2023-08-23T13:00:50.089Z,10.82
2023-08-23T13:03:16.945Z,10.88
2023-08-23T13:05:43.910Z,10.02
2023-08-23T13:08:12.052Z,10.18
2023-08-23T13:10:38.935Z,10.05
2023-08-23T13:13:08.569Z,9.27
2023-08-23T13:15:36.192Z,11.77
2023-08-23T13:18:07.598Z,10.00
2023-08-23T13:20:34.628Z,9.63
2023-08-23T13:23:01.445Z,10.40
2023-08-23T13:25:28.239Z,9.75
2023-08-23T13:27:55.138Z,10.32
2023-08-23T13:30:21.995Z,10.52
2023-08-23T13:32:52.880Z,11.27
2023-08-23T13:35:20.536Z,10.57
2023-08-23T13:37:51.155Z,10.25
2023-08-23T13:40:18.214Z,9.85
2023-08-23T13:42:49.285Z,10.25
2023-08-23T13:45:20.184Z,9.80
2023-08-23T13:47:47.184Z,10.43
2023-08-23T13:50:17.023Z,9.27
2023-08-23T13:52:43.743Z,10.35
2023-08-23T13:55:12.377Z,10.88
2023-08-23T13:57:39.388Z,11.45
2023-08-23T14:00:08.686Z,10.32
2023-08-23T14:02:36.909Z,10.95
2023-08-23T14:05:04.018Z,10.25
2023-08-23T14:07:30.908Z,10.13
2023-08-23T14:09:57.708Z,10.32
2023-08-23T14:12:27.220Z,9.50
2023-08-23T14:14:53.973Z,9.75
2023-08-23T14:17:20.618Z,9.98
2023-08-23T14:19:49.764Z,10.10
2023-08-23T14:22:16.992Z,10.52
2023-08-23T14:24:47.193Z,9.80
2023-08-23T14:27:15.519Z,9.60
2023-08-23T14:29:42.689Z,9.52
2023-08-23T14:32:09.474Z,10.43
2023-08-23T14:34:36.214Z,10.90
2023-08-23T14:37:03.023Z,10.52
2023-08-23T14:39:33.535Z,9.45
2023-08-23T14:42:00.489Z,9.73
2023-08-23T14:44:30.689Z,9.32
2023-08-23T14:46:59.426Z,10.10
2023-08-23T14:49:26.080Z,9.90
2023-08-23T14:51:52.773Z,9.75
2023-08-23T14:54:22.149Z,9.65
2023-08-23T14:56:48.982Z,9.32
2023-08-23T14:59:15.586Z,9.70
2023-08-23T15:01:42.231Z,8.93
2023-08-23T15:04:08.941Z,9.93
2023-08-23T15:06:37.406Z,10.27
2023-08-23T15:09:05.294Z,10.18
2023-08-23T15:11:32.008Z,14.13
2023-08-23T15:13:59.885Z,9.52
2023-08-23T15:16:29.089Z,9.30
2023-08-23T15:19:02.978Z,9.55
2023-08-23T15:21:29.949Z,9.88
2023-08-23T15:23:56.644Z,9.55
2023-08-23T15:26:26.403Z,9.32
2023-08-23T15:28:56.838Z,9.87
2023-08-23T15:31:24.310Z,9.18
2023-08-23T15:33:51.108Z,9.75
2023-08-23T15:36:20.755Z,9.25
2023-08-23T15:38:47.605Z,9.00
2023-08-23T15:41:14.372Z,8.65
2023-08-23T15:43:41.073Z,9.13
2023-08-23T15:46:07.787Z,10.98
2023-08-23T15:48:34.500Z,9.70
2023-08-23T15:51:06.205Z,9.48
2023-08-23T15:53:33.205Z,9.20
2023-08-23T15:56:03.781Z,8.95
2023-08-23T15:58:31.097Z,9.48
2023-08-23T16:00:58.160Z,9.73
2023-08-23T16:03:24.987Z,10.07
2023-08-23T16:06:01.419Z,9.18
2023-08-23T16:08:28.997Z,9.27
2023-08-23T16:10:58.978Z,9.18
2023-08-23T16:13:26.160Z,9.40
2023-08-23T16:15:56.378Z,9.65
2023-08-23T16:18:26.775Z,9.73
2023-08-23T16:20:53.593Z,11.07
2023-08-23T16:23:20.368Z,9.25
2023-08-23T16:25:50.551Z,9.30
2023-08-23T16:28:19.959Z,9.77
2023-08-23T16:30:50.244Z,9.77
2023-08-23T16:33:17.762Z,9.90
2023-08-23T16:35:44.513Z,8.88
2023-08-23T16:38:13.859Z,10.30
2023-08-23T16:40:46.009Z,9.52
2023-08-23T16:43:15.490Z,9.05
2023-08-23T16:45:42.383Z,9.85
2023-08-23T16:48:09.297Z,9.23
2023-08-23T16:50:36.561Z,10.18
2023-08-23T16:53:04.538Z,9.38
2023-08-23T16:55:37.352Z,10.73
2023-08-23T16:58:09.067Z,9.65
2023-08-23T17:03:10.905Z,10.25
2023-08-23T17:05:37.861Z,9.68
2023-08-23T17:08:04.838Z,9.93
2023-08-23T17:10:32.450Z,9.85
2023-08-23T17:12:59.429Z,9.90
2023-08-23T17:15:27.628Z,10.02
2023-08-23T17:17:54.942Z,10.77
2023-08-23T17:20:22.475Z,9.85
2023-08-23T17:22:52.360Z,10.48
2023-08-23T17:25:20.525Z,9.63
2023-08-23T17:27:51.021Z,11.43
2023-08-23T17:30:22.294Z,10.43
2023-08-23T17:32:49.305Z,10.63
2023-08-23T17:35:19.542Z,10.95
2023-08-23T17:37:48.497Z,10.60
2023-08-23T17:40:15.973Z,10.38
2023-08-23T17:42:42.838Z,10.40
2023-08-23T17:45:10.217Z,10.50
2023-08-23T17:47:37.091Z,10.70
2023-08-23T17:50:05.368Z,9.93
2023-08-23T17:52:32.149Z,10.27
2023-08-23T17:55:09.205Z,10.43
2023-08-23T17:57:38.961Z,10.50
2023-08-23T18:00:06.329Z,10.73
2023-08-23T18:02:33.153Z,11.18
2023-08-23T18:04:59.958Z,11.40
2023-08-23T18:07:28.255Z,10.73
2023-08-23T18:10:03.335Z,11.02
2023-08-23T18:12:30.156Z,11.88
2023-08-23T18:14:57.016Z,11.70
2023-08-23T18:17:25.719Z,10.65
2023-08-23T18:19:52.547Z,12.00
2023-08-23T18:22:19.252Z,11.93
2023-08-23T18:24:46.112Z,10.50
2023-08-23T18:27:15.716Z,10.85
2023-08-23T18:29:45.646Z,10.68
2023-08-23T18:32:13.142Z,11.80
2023-08-23T18:34:39.963Z,10.50
2023-08-23T18:37:06.763Z,11.40
2023-08-23T18:39:35.468Z,11.13
2023-08-23T18:42:03.624Z,10.10
2023-08-23T18:44:32.175Z,10.40
2023-08-23T18:46:59.088Z,11.73
2023-08-23T18:49:25.831Z,10.32
2023-08-23T18:51:52.549Z,11.68
2023-08-23T18:54:19.366Z,10.90
2023-08-23T18:56:46.116Z,10.82
2023-08-23T18:59:12.932Z,11.45
2023-08-23T19:01:39.942Z,10.23
2023-08-23T19:04:06.726Z,11.00
2023-08-23T19:06:39.444Z,11.95
2023-08-23T19:09:09.234Z,11.13
2023-08-23T19:11:35.979Z,10.98
2023-08-23T19:14:10.997Z,11.85
2023-08-23T19:16:37.801Z,11.27
2023-08-23T19:19:04.590Z,12.00
2023-08-23T19:21:31.373Z,10.73
2023-08-23T19:23:58.202Z,12.40
2023-08-23T19:26:25.060Z,10.80
2023-08-23T19:28:51.861Z,13.27
2023-08-23T19:31:21.648Z,10.38
2023-08-23T19:33:48.426Z,10.68
2023-08-23T19:36:15.181Z,12.85
2023-08-23T19:38:41.854Z,12.38
2023-08-23T19:41:08.558Z,13.02
2023-08-23T19:43:35.339Z,12.38
2023-08-23T19:46:02.419Z,12.77
2023-08-23T19:48:33.248Z,11.20
2023-08-23T19:51:03.995Z,11.30
2023-08-23T19:56:05.674Z,11.35
2023-08-23T19:58:37.095Z,13.27
2023-08-23T20:01:04.371Z,12.13
2023-08-23T20:03:31.740Z,11.02
2023-08-23T20:05:58.826Z,11.27
2023-08-23T20:08:25.638Z,11.70
2023-08-23T20:10:52.435Z,11.20
2023-08-23T20:13:25.973Z,11.40
2023-08-23T20:15:52.788Z,11.05
2023-08-23T20:18:19.694Z,12.05
2023-08-23T20:20:46.515Z,11.55
2023-08-23T20:23:16.293Z,10.57
2023-08-23T20:25:43.161Z,12.27
2023-08-23T20:28:10.010Z,11.82
2023-08-23T20:30:42.481Z,11.43
2023-08-23T20:33:09.662Z,11.68
2023-08-23T20:35:36.582Z,12.10
2023-08-23T20:38:03.508Z,11.20
2023-08-23T20:40:33.948Z,11.50
2023-08-23T20:43:00.884Z,11.18
2023-08-23T20:45:27.918Z,11.48
2023-08-23T20:48:00.211Z,11.13
2023-08-23T20:50:27.084Z,10.90
2023-08-23T20:52:53.995Z,10.45
2023-08-23T20:55:20.853Z,10.93
2023-08-23T20:57:48.196Z,10.07
2023-08-23T21:00:15.995Z,9.38
2023-08-23T21:02:43.116Z,11.23
2023-08-23T21:05:10.150Z,10.13
2023-08-23T21:07:36.777Z,9.40
2023-08-23T21:10:07.154Z,9.95
2023-08-23T21:12:35.273Z,9.93
2023-08-23T21:15:02.232Z,10.13
2023-08-23T21:17:30.759Z,10.73
2023-08-23T21:19:57.531Z,9.68
2023-08-23T21:22:24.820Z,10.43
2023-08-23T21:24:51.707Z,11.02
2023-08-23T21:27:19.218Z,10.23
2023-08-23T21:29:46.143Z,9.65
2023-08-23T21:32:12.911Z,10.68
2023-08-23T21:34:39.892Z,10.30
2023-08-23T21:37:06.633Z,10.55
2023-08-23T21:39:33.344Z,10.48
2023-08-23T21:41:59.961Z,10.85
2023-08-23T21:44:28.747Z,10.13
2023-08-23T21:47:04.133Z,10.32
2023-08-23T21:49:33.829Z,9.80
2023-08-23T21:52:00.503Z,10.82
2023-08-23T21:54:32.518Z,10.60
2023-08-23T21:56:59.164Z,10.85
2023-08-23T21:59:26.298Z,9.75
2023-08-23T22:01:53.241Z,10.43
2023-08-23T22:04:20.024Z,10.90
2023-08-23T22:06:46.746Z,10.60
2023-08-23T22:09:16.539Z,10.82
2023-08-23T22:11:46.216Z,10.18
2023-08-23T22:14:12.852Z,10.45
2023-08-23T22:16:41.151Z,11.23
2023-08-23T22:19:09.432Z,10.90
2023-08-23T22:21:36.394Z,10.52
2023-08-23T22:24:03.338Z,10.80
2023-08-23T22:26:30.153Z,11.10
2023-08-23T22:28:57.424Z,10.90
2023-08-23T22:31:36.575Z,10.82
2023-08-23T22:34:03.557Z,10.90
2023-08-23T22:36:30.408Z,11.27
2023-08-23T22:38:58.783Z,10.45
2023-08-23T22:41:25.734Z,10.77
2023-08-23T22:43:52.682Z,11.73
2023-08-23T22:46:31.692Z,10.27
2023-08-23T22:48:59.310Z,10.85
2023-08-23T22:51:26.528Z,10.07
2023-08-23T22:53:57.844Z,10.15
2023-08-23T22:56:24.569Z,11.10
2023-08-23T22:58:51.209Z,10.63
2023-08-23T23:01:18.222Z,10.82
2023-08-23T23:03:45.250Z,10.38
2023-08-23T23:06:12.758Z,11.13
2023-08-23T23:08:40.134Z,10.85
2023-08-23T23:11:08.154Z,11.18
2023-08-23T23:13:35.028Z,11.32
2023-08-23T23:16:06.620Z,11.55
2023-08-23T23:18:37.529Z,11.48
2023-08-23T23:21:16.498Z,11.57
2023-08-23T23:23:54.028Z,11.68
2023-08-23T23:26:21.594Z,12.02
2023-08-23T23:28:49.091Z,11.45
2023-08-23T23:31:15.876Z,10.10
2023-08-23T23:33:46.893Z,11.27
2023-08-23T23:36:14.578Z,12.38
2023-08-23T23:38:50.923Z,12.50
2023-08-23T23:41:27.954Z,12.13
2023-08-23T23:43:57.223Z,12.25
2023-08-23T23:46:25.897Z,11.27
2023-08-23T23:48:52.540Z,10.85
2023-08-23T23:51:21.640Z,11.10
2023-08-23T23:53:48.648Z,11.23
2023-08-23T23:56:19.219Z,12.07
2023-08-23T23:58:48.497Z,11.55
